Time;durP1;ratioP1;P1;durP2;ratioP2;P2;SDS_P1;SDS_P2;PMS_P1;PMS_P2;Temp;Humidity;BMP_temperature;BMP_pressure;BME280_temperature;BME280_humidity;BME280_pressure;Samples;Min_cycle;Max_cycle;Signal;HPM_P1;HPM_P2
2021/01/22 00:00:30;;;;;;;1.70;0.98;;;;;;;9.87;64.98;98034.16;5053950;28;20053;-73
2021/01/22 00:02:57;;;;;;;2.05;0.60;;;;;;;9.85;65.08;98034.44;5036483;28;20049;-73
2021/01/22 00:05:23;;;;;;;1.02;0.70;;;;;;;9.90;64.57;98036.38;5053927;28;20056;-73
2021/01/22 00:07:50;;;;;;;1.42;0.57;;;;;;;9.87;64.94;98037.72;5053706;28;20501;-73
2021/01/22 00:10:16;;;;;;;1.52;0.50;;;;;;;9.95;64.56;98034.50;5053800;28;20426;-73
2021/01/22 00:12:42;;;;;;;3.58;0.50;;;;;;;10.01;64.51;98022.53;5000101;28;20103;-73
2021/01/22 00:15:09;;;;;;;14.15;1.48;;;;;;;10.04;63.99;98021.19;5035107;28;20147;-73
2021/01/22 00:17:36;;;;;;;2.88;0.80;;;;;;;10.10;63.90;98031.00;5035162;28;20128;-73
2021/01/22 00:20:04;;;;;;;0.77;0.50;;;;;;;10.07;64.11;98035.06;5032568;28;20057;-73
2021/01/22 00:22:30;;;;;;;1.42;0.68;;;;;;;10.03;63.90;98017.66;5017835;28;20458;-73
2021/01/22 00:24:57;;;;;;;11.13;0.57;;;;;;;10.01;64.58;98038.06;5047843;28;20594;-74
2021/01/22 00:27:23;;;;;;;0.65;0.50;;;;;;;9.94;64.59;98026.59;5023270;28;20072;-74
2021/01/22 00:29:49;;;;;;;1.20;0.50;;;;;;;9.91;65.15;98025.22;5004371;28;20460;-73
2021/01/22 00:32:16;;;;;;;2.65;0.50;;;;;;;9.86;65.28;98018.94;5052171;28;20600;-73
2021/01/22 00:34:42;;;;;;;1.00;0.50;;;;;;;9.89;65.05;98024.66;5034701;28;20078;-73
2021/01/22 00:37:10;;;;;;;1.80;0.50;;;;;;;9.89;64.61;98046.44;5051811;28;20052;-73
2021/01/22 00:39:37;;;;;;;4.97;1.00;;;;;;;9.90;64.83;98042.63;5015436;28;20107;-74
2021/01/22 00:42:03;;;;;;;1.88;0.50;;;;;;;9.82;65.05;98034.97;5052158;28;20136;-73
2021/01/22 00:44:30;;;;;;;2.45;0.60;;;;;;;9.71;65.54;98025.94;5035673;28;20048;-73
2021/01/22 00:46:57;;;;;;;1.95;0.65;;;;;;;9.64;65.87;98046.31;5035969;28;20056;-74
2021/01/22 00:49:23;;;;;;;1.70;0.50;;;;;;;9.65;65.49;98029.72;5053759;28;20056;-73
2021/01/22 00:51:50;;;;;;;1.75;0.45;;;;;;;9.70;65.14;98037.09;5053314;28;20073;-73
2021/01/22 00:54:17;;;;;;;1.60;0.68;;;;;;;9.66;65.56;98027.81;5019075;28;20119;-73
2021/01/22 00:57:09;;;;;;;1.00;0.43;;;;;;;9.66;65.27;98017.75;5039346;28;20503;-73
2021/01/22 00:59:35;;;;;;;3.20;0.82;;;;;;;9.67;65.25;98026.75;5018877;28;20060;-73
2021/01/22 01:02:02;;;;;;;1.17;0.60;;;;;;;9.67;65.02;98027.56;5033502;28;20049;-73
2021/01/22 01:04:28;;;;;;;0.85;0.47;;;;;;;9.63;65.28;98021.00;5002691;28;20098;-73
2021/01/22 01:07:03;;;;;;;1.30;0.70;;;;;;;9.60;65.34;98042.47;5035066;28;20140;-74
2021/01/22 01:09:30;;;;;;;2.28;0.85;;;;;;;9.54;65.63;98027.19;5035242;28;20131;-73
2021/01/22 01:12:16;;;;;;;2.17;0.57;;;;;;;9.47;65.81;98034.75;5052129;28;20519;-73
2021/01/22 01:15:00;;;;;;;1.48;0.77;;;;;;;9.45;65.79;98040.47;5052559;28;20057;-73
2021/01/22 01:17:35;;;;;;;0.98;0.57;;;;;;;9.31;66.13;98034.69;5034860;28;20045;-73
2021/01/22 01:20:04;;;;;;;1.33;0.75;;;;;;;9.28;66.13;98018.06;5035298;28;20126;-73
2021/01/22 01:22:31;;;;;;;1.08;0.52;;;;;;;9.21;66.25;98029.16;5021182;28;20044;-72
2021/01/22 01:24:57;;;;;;;1.50;0.70;;;;;;;9.18;66.42;98013.38;5034800;28;20073;-73
2021/01/22 01:27:23;;;;;;;1.85;0.70;;;;;;;9.13;66.06;97999.75;5034294;28;20049;-73
2021/01/22 01:29:50;;;;;;;2.35;1.00;;;;;;;9.10;65.92;97996.75;5035007;28;20045;-73
2021/01/22 01:32:16;;;;;;;2.47;1.00;;;;;;;9.10;65.91;97999.47;5034781;28;20053;-73
2021/01/22 01:34:43;;;;;;;1.52;0.80;;;;;;;9.07;65.73;97992.66;5052229;28;20045;-72
2021/01/22 01:37:09;;;;;;;2.50;0.90;;;;;;;9.05;65.43;97982.03;5034829;28;20053;-73
2021/01/22 01:39:37;;;;;;;1.20;0.68;;;;;;;8.97;65.96;97984.44;5034830;28;20128;-73
2021/01/22 01:42:07;;;;;;;2.92;1.15;;;;;;;8.83;66.55;97969.66;5058051;22;20141;-75
2021/01/22 01:44:34;;;;;;;1.35;0.73;;;;;;;8.84;66.22;97979.44;5052247;28;20120;-73
2021/01/22 01:47:01;;;;;;;1.77;0.80;;;;;;;8.82;66.19;97968.84;5026705;28;20418;-73
2021/01/22 01:49:27;;;;;;;2.25;0.85;;;;;;;8.77;66.48;97973.41;5018302;28;20065;-73
2021/01/22 01:51:54;;;;;;;1.77;1.15;;;;;;;8.73;66.54;97946.78;5058528;28;20103;-73
2021/01/22 01:54:20;;;;;;;2.15;0.85;;;;;;;8.72;66.37;97950.56;5042188;28;20520;-73
2021/01/22 01:56:47;;;;;;;1.33;0.50;;;;;;;8.66;66.75;97954.31;5003965;28;20048;-74
2021/01/22 01:59:16;;;;;;;2.90;0.98;;;;;;;8.66;66.57;97948.09;5009832;28;20136;-74
2021/01/22 02:01:44;;;;;;;1.52;0.85;;;;;;;8.54;67.03;97923.81;5015319;28;20099;-74
2021/01/22 02:04:11;;;;;;;4.05;1.20;;;;;;;8.53;67.12;97915.94;5002370;28;20106;-73
2021/01/22 02:06:38;;;;;;;2.03;0.90;;;;;;;8.47;67.21;97909.66;5016962;28;20045;-76
2021/01/22 02:09:05;;;;;;;2.88;1.20;;;;;;;8.40;67.70;97904.44;5017485;28;20055;-73
2021/01/22 02:11:31;;;;;;;1.48;0.80;;;;;;;8.50;67.17;97892.03;5024713;28;20068;-73
2021/01/22 02:13:58;;;;;;;2.53;0.82;;;;;;;8.52;67.15;97879.84;5000313;28;20099;-74
2021/01/22 02:16:25;;;;;;;2.05;0.73;;;;;;;8.49;67.42;97874.91;4996627;28;20069;-73
2021/01/22 02:18:53;;;;;;;1.40;0.73;;;;;;;8.51;66.94;97867.34;5014617;28;20478;-74
2021/01/22 02:21:27;;;;;;;2.17;1.23;;;;;;;8.48;67.07;97873.28;5019390;28;20049;-73
2021/01/22 02:24:08;;;;;;;2.03;0.73;;;;;;;8.36;67.22;97864.50;4997400;28;20081;-74
2021/01/22 02:26:43;;;;;;;1.02;0.60;;;;;;;8.47;66.51;97854.53;5028954;28;20080;-73
2021/01/22 02:29:10;;;;;;;1.33;0.70;;;;;;;8.52;66.26;97863.53;5021996;28;20140;-74
2021/01/22 02:31:40;;;;;;;1.48;0.80;;;;;;;8.46;66.36;97850.19;5003495;28;20044;-74
2021/01/22 02:34:09;;;;;;;0.82;0.60;;;;;;;8.45;66.51;97862.13;4996948;28;20057;-73
2021/01/22 02:36:38;;;;;;;1.67;0.70;;;;;;;8.42;66.19;97854.50;4999841;28;20111;-73
2021/01/22 02:39:06;;;;;;;2.05;0.75;;;;;;;8.37;66.12;97841.72;5012580;28;20064;-73
2021/01/22 02:41:34;;;;;;;1.80;0.90;;;;;;;8.50;65.40;97838.56;5013390;28;20045;-74
2021/01/22 02:44:03;;;;;;;4.40;0.90;;;;;;;8.43;65.68;97837.97;5015342;28;20565;-73
2021/01/22 02:46:30;;;;;;;1.30;0.70;;;;;;;8.49;65.18;97836.91;5013523;28;20131;-72
2021/01/22 02:48:58;;;;;;;1.70;0.90;;;;;;;8.45;65.05;97819.53;5013879;28;20057;-73
2021/01/22 02:51:25;;;;;;;1.60;0.60;;;;;;;8.50;64.80;97800.56;4997157;28;20045;-74
2021/01/22 02:53:51;;;;;;;2.80;0.85;;;;;;;8.39;65.08;97807.81;5013257;28;20067;-73
2021/01/22 02:56:23;;;;;;;0.82;0.50;;;;;;;8.42;65.00;97808.38;4996944;28;20042;-73
2021/01/22 02:59:08;;;;;;;1.30;0.60;;;;;;;8.45;64.65;97803.25;4998291;28;20523;-73
2021/01/22 03:01:43;;;;;;;0.68;0.30;;;;;;;8.42;64.59;97814.63;5032449;28;20427;-73
2021/01/22 03:04:11;;;;;;;1.30;0.80;;;;;;;8.37;64.74;97814.56;5029409;28;20048;-73
2021/01/22 03:06:43;;;;;;;2.67;1.02;;;;;;;8.35;64.90;97819.44;5012953;28;20099;-73
2021/01/22 03:09:15;;;;;;;1.25;0.70;;;;;;;8.25;65.09;97819.34;5001444;28;20049;-74
2021/01/22 03:11:43;;;;;;;1.85;0.90;;;;;;;8.24;64.84;97812.28;5014623;28;20053;-74
2021/01/22 03:14:11;;;;;;;1.42;0.77;;;;;;;8.31;64.66;97827.28;4984763;28;20052;-74
2021/01/22 03:16:38;;;;;;;2.90;0.90;;;;;;;8.34;64.23;97831.38;5012591;28;20650;-75
2021/01/22 03:19:05;;;;;;;2.28;1.00;;;;;;;8.33;63.96;97840.59;5012591;28;20088;-74
2021/01/22 03:21:31;;;;;;;2.90;1.02;;;;;;;8.29;64.02;97832.16;5012640;28;20132;-74
2021/01/22 03:23:58;;;;;;;2.78;1.02;;;;;;;8.31;63.73;97842.75;5011774;28;20053;-74
2021/01/22 03:26:25;;;;;;;1.95;0.90;;;;;;;8.33;63.84;97843.31;5012654;28;20140;-73
2021/01/22 03:28:51;;;;;;;1.60;0.90;;;;;;;8.37;63.87;97855.28;4997890;28;20050;-74
2021/01/22 03:31:18;;;;;;;1.15;0.63;;;;;;;8.46;63.17;97829.31;4996823;28;20061;-74
2021/01/22 03:33:45;;;;;;;2.15;0.70;;;;;;;8.40;63.20;97833.06;5012677;28;20120;-73
2021/01/22 03:36:11;;;;;;;1.50;0.80;;;;;;;8.58;62.44;97832.66;5012896;28;20458;-73
2021/01/22 03:38:38;;;;;;;2.13;0.80;;;;;;;8.42;63.11;97817.31;5012408;28;20085;-72
2021/01/22 03:41:04;;;;;;;1.48;0.70;;;;;;;8.42;62.58;97806.47;4996702;28;20045;-74
2021/01/22 03:43:31;;;;;;;0.95;0.52;;;;;;;8.51;62.39;97807.63;5012279;28;20592;-74
2021/01/22 03:45:57;;;;;;;0.90;0.63;;;;;;;8.45;62.93;97786.13;5014855;28;20072;-74
2021/01/22 03:48:24;;;;;;;1.38;0.70;;;;;;;8.55;62.63;97808.75;5038210;28;20053;-74
2021/01/22 03:50:50;;;;;;;2.08;0.80;;;;;;;8.49;62.49;97788.06;5017132;28;20069;-74
2021/01/22 03:53:16;;;;;;;3.05;0.93;;;;;;;8.54;62.27;97790.81;5014994;28;20038;-74
2021/01/22 03:55:52;;;;;;;1.85;0.70;;;;;;;8.60;62.13;97788.97;5015526;28;20046;-73
2021/01/22 03:58:18;;;;;;;1.60;0.60;;;;;;;8.64;62.34;97781.91;5012525;28;20103;-74
2021/01/22 04:00:45;;;;;;;0.80;0.50;;;;;;;8.52;62.21;97778.59;5034058;28;20049;-74
2021/01/22 04:03:11;;;;;;;1.40;0.60;;;;;;;8.56;62.40;97771.56;4994599;28;20041;-74
2021/01/22 04:05:38;;;;;;;2.20;0.60;;;;;;;8.46;62.60;97791.31;5015819;28;20056;-73
2021/01/22 04:08:05;;;;;;;2.40;0.60;;;;;;;8.50;62.38;97778.84;5016135;28;20107;-74
2021/01/22 04:10:31;;;;;;;1.52;0.50;;;;;;;8.37;62.75;97780.13;5016206;28;20056;-74
2021/01/22 04:12:58;;;;;;;1.00;0.50;;;;;;;8.43;62.69;97769.28;5013831;28;20054;-73
2021/01/22 04:15:24;;;;;;;1.58;0.60;;;;;;;8.31;63.14;97759.44;5015981;28;20114;-73
2021/01/22 04:17:51;;;;;;;1.58;0.47;;;;;;;8.37;63.01;97735.88;4995578;28;20443;-74
2021/01/22 04:20:21;;;;;;;1.13;0.50;;;;;;;8.32;63.11;97749.38;5015416;28;20057;-74
2021/01/22 04:22:51;;;;;;;1.20;0.50;;;;;;;8.30;63.34;97729.88;5050327;28;20045;-74
2021/01/22 04:25:17;;;;;;;2.65;0.70;;;;;;;8.33;63.20;97732.06;5032265;28;20069;-73
2021/01/22 04:27:44;;;;;;;0.95;0.60;;;;;;;8.26;63.38;97728.75;5012845;28;20046;-73
2021/01/22 04:30:11;;;;;;;1.00;0.50;;;;;;;8.29;63.23;97723.63;5010372;28;20045;-73
2021/01/22 04:32:40;;;;;;;1.02;0.60;;;;;;;8.30;63.64;97727.16;5033598;28;20053;-73
2021/01/22 04:35:10;;;;;;;1.50;0.60;;;;;;;8.21;63.52;97732.25;5034958;28;20103;-74
2021/01/22 04:37:38;;;;;;;1.38;0.60;;;;;;;8.20;64.10;97737.94;5045317;28;20048;-75
2021/01/22 04:40:06;;;;;;;0.50;0.43;;;;;;;8.25;63.77;97733.34;5004042;28;20068;-75
2021/01/22 04:42:33;;;;;;;2.50;0.70;;;;;;;8.17;63.88;97741.97;5060578;28;20123;-75
2021/01/22 04:44:59;;;;;;;1.60;0.70;;;;;;;8.10;64.32;97729.72;5044411;28;20076;-75
2021/01/22 04:47:26;;;;;;;1.52;0.60;;;;;;;8.22;63.89;97738.50;5042025;28;20056;-76
2021/01/22 04:49:53;;;;;;;1.00;0.70;;;;;;;8.17;64.02;97730.31;5019625;28;20131;-75
2021/01/22 04:52:19;;;;;;;1.52;0.77;;;;;;;8.16;64.13;97723.25;5017366;28;20080;-76
2021/01/22 04:54:47;;;;;;;1.15;0.57;;;;;;;8.26;63.73;97726.03;5025049;28;20045;-76
2021/01/22 04:57:14;;;;;;;2.10;0.75;;;;;;;8.22;63.81;97736.59;5001845;28;20143;-75
2021/01/22 04:59:51;;;;;;;1.13;0.50;;;;;;;8.19;64.33;97739.00;5015632;28;20466;-75
2021/01/22 05:02:21;;;;;;;2.22;0.70;;;;;;;8.13;64.22;97734.63;5015119;28;20045;-76
2021/01/22 05:04:49;;;;;;;1.55;0.75;;;;;;;8.05;64.69;97731.31;5053048;28;20080;-76
2021/01/22 05:07:15;;;;;;;1.63;0.70;;;;;;;8.02;64.79;97745.41;5019031;28;20052;-75
2021/01/22 05:09:42;;;;;;;1.30;0.80;;;;;;;8.15;64.41;97732.47;5053176;28;20556;-76
2021/01/22 05:12:08;;;;;;;1.73;0.60;;;;;;;8.15;64.30;97735.19;5002822;28;20052;-76
2021/01/22 05:14:35;;;;;;;1.40;0.70;;;;;;;8.14;64.47;97728.13;5052554;28;20041;-76
2021/01/22 05:17:06;;;;;;;0.70;0.60;;;;;;;8.18;64.38;97734.66;4999070;28;20049;-76
2021/01/22 05:19:41;;;;;;;2.50;1.17;;;;;;;8.17;64.52;97724.88;5017837;28;20044;-76
2021/01/22 05:22:15;;;;;;;1.90;0.80;;;;;;;8.13;64.51;97719.16;5035190;28;20049;-74
2021/01/22 05:24:41;;;;;;;2.60;1.13;;;;;;;8.22;64.29;97714.06;5015585;28;20099;-74
2021/01/22 05:27:13;;;;;;;1.50;0.63;;;;;;;8.26;64.17;97715.19;5019809;28;20061;-73
2021/01/22 05:29:42;;;;;;;1.55;0.80;;;;;;;8.30;64.03;97700.84;5036280;28;20549;-74
2021/01/22 05:32:25;;;;;;;1.83;0.90;;;;;;;8.28;64.19;97718.44;5003037;28;20094;-74
2021/01/22 05:34:51;;;;;;;1.70;1.02;;;;;;;8.31;63.97;97701.66;5052372;28;20401;-74
2021/01/22 05:37:18;;;;;;;2.15;0.90;;;;;;;8.24;64.63;97710.03;5052563;28;20052;-73
2021/01/22 05:39:45;;;;;;;2.08;0.70;;;;;;;8.19;64.71;97711.88;5034730;28;20053;-74
2021/01/22 05:42:13;;;;;;;2.88;1.35;;;;;;;8.20;64.71;97708.91;5052692;28;20041;-74
2021/01/22 05:44:52;;;;;;;3.25;1.10;;;;;;;8.20;64.85;97710.81;5052408;28;20136;-74
2021/01/22 05:47:18;;;;;;;2.67;0.77;;;;;;;8.20;64.98;97702.66;5038859;28;20132;-75
2021/01/22 05:49:53;;;;;;;6.45;1.70;;;;;;;8.30;64.42;97714.41;5034781;28;20049;-74
2021/01/22 05:52:21;;;;;;;3.13;1.10;;;;;;;8.39;64.16;97699.25;5018310;28;20457;-74
2021/01/22 05:54:47;;;;;;;1.90;0.90;;;;;;;8.38;64.15;97705.75;5014962;28;20038;-74
2021/01/22 05:57:13;;;;;;;1.90;0.75;;;;;;;8.49;63.81;97706.66;5033286;28;20475;-74
2021/01/22 05:59:40;;;;;;;1.48;0.60;;;;;;;8.45;63.70;97713.69;5034331;28;20111;-74
2021/01/22 06:02:29;;;;;;;2.63;0.85;;;;;;;8.53;63.49;97718.59;5034350;28;20057;-74
2021/01/22 06:05:11;;;;;;;1.65;0.70;;;;;;;8.59;63.24;97725.69;5034955;28;20041;-74
2021/01/22 06:07:40;;;;;;;1.75;0.93;;;;;;;8.57;63.28;97730.56;5034489;28;20056;-74
2021/01/22 06:10:18;;;;;;;1.85;0.85;;;;;;;8.49;63.59;97722.94;5034746;28;20049;-74
2021/01/22 06:12:50;;;;;;;1.92;0.82;;;;;;;8.58;63.11;97710.50;5014684;28;20045;-74
2021/01/22 06:15:17;;;;;;;3.35;1.33;;;;;;;8.51;63.52;97715.34;5045197;28;20608;-76
2021/01/22 06:17:52;;;;;;;2.30;0.73;;;;;;;8.54;63.12;97717.53;5038981;28;20045;-73
2021/01/22 06:20:22;;;;;;;2.85;1.13;;;;;;;8.48;63.32;97710.44;5028166;28;20132;-73
2021/01/22 06:23:00;;;;;;;1.77;0.90;;;;;;;8.55;63.19;97716.44;5052798;28;20076;-73
2021/01/22 06:25:27;;;;;;;1.40;0.70;;;;;;;8.61;62.88;97720.00;5034578;28;20050;-76
2021/01/22 06:27:54;;;;;;;2.15;0.70;;;;;;;8.58;63.02;97721.34;5034079;28;20041;-73
2021/01/22 06:30:22;;;;;;;2.15;0.98;;;;;;;8.57;63.14;97708.84;5029912;28;20053;-74
2021/01/22 06:32:49;;;;;;;2.10;0.70;;;;;;;8.63;62.72;97713.22;5031316;28;20462;-74
2021/01/22 06:35:16;;;;;;;4.22;0.90;;;;;;;8.54;63.13;97720.25;5030325;28;20651;-74
2021/01/22 06:37:42;;;;;;;4.20;0.90;;;;;;;8.62;62.88;97717.03;5020699;28;20076;-73
2021/01/22 06:40:09;;;;;;;2.10;0.93;;;;;;;8.66;62.59;97728.97;5034365;28;20581;-74
2021/01/22 06:42:37;;;;;;;1.92;0.82;;;;;;;8.65;62.60;97737.41;5040300;28;20052;-74
2021/01/22 06:45:05;;;;;;;1.35;0.80;;;;;;;8.65;62.60;97732.78;5033605;28;20040;-74
2021/01/22 06:47:31;;;;;;;2.20;0.90;;;;;;;8.66;62.50;97742.53;5017268;28;20051;-74
2021/01/22 06:49:58;;;;;;;2.33;0.80;;;;;;;8.67;62.47;97741.47;5033585;28;20048;-74
2021/01/22 06:52:25;;;;;;;12.45;1.80;;;;;;;8.72;62.16;97741.50;5032448;28;20065;-74
2021/01/22 06:54:57;;;;;;;2.97;1.10;;;;;;;8.82;62.03;97742.63;5031492;28;20461;-74
2021/01/22 06:57:24;;;;;;;5.28;1.00;;;;;;;8.87;61.71;97750.78;5051092;28;20049;-75
2021/01/22 06:59:50;;;;;;;3.17;0.80;;;;;;;8.83;61.85;97749.69;5033147;28;20048;-74
2021/01/22 07:02:32;;;;;;;2.75;1.00;;;;;;;8.81;62.00;97758.09;5033080;28;20076;-74
2021/01/22 07:04:59;;;;;;;2.65;0.80;;;;;;;8.86;61.55;97760.84;5032728;28;20049;-74
2021/01/22 07:07:46;;;;;;;2.70;0.95;;;;;;;8.86;61.85;97755.41;5016954;28;20048;-74
2021/01/22 07:10:13;;;;;;;2.53;0.98;;;;;;;8.96;61.37;97760.06;5033036;28;20048;-74
2021/01/22 07:12:41;;;;;;;2.25;0.82;;;;;;;8.95;61.58;97755.72;5016991;28;20051;-74
2021/01/22 07:15:20;;;;;;;5.45;1.00;;;;;;;9.53;59.83;97754.50;5016656;28;20056;-74
2021/01/22 07:17:58;;;;;;;4.78;1.00;;;;;;;10.57;56.69;97750.38;5034005;28;20077;-74
2021/01/22 07:20:25;;;;;;;2.22;0.70;;;;;;;11.18;54.23;97747.41;5033358;28;20063;-74
2021/01/22 07:22:56;;;;;;;2.85;1.13;;;;;;;11.43;53.18;97758.16;5033029;28;20453;-74
2021/01/22 07:25:30;;;;;;;2.83;1.00;;;;;;;11.60;52.69;97752.34;5033280;28;20045;-75
2021/01/22 07:27:57;;;;;;;3.40;0.80;;;;;;;11.32;53.26;97759.34;5035121;28;20515;-74
2021/01/22 07:30:23;;;;;;;2.75;0.90;;;;;;;11.59;52.37;97760.81;5042459;28;20049;-74
2021/01/22 07:32:51;;;;;;;4.10;1.00;;;;;;;12.61;49.66;97760.78;5002465;28;20568;-74
2021/01/22 07:35:20;;;;;;;2.88;0.65;;;;;;;12.39;49.90;97772.22;5016566;28;20532;-75
2021/01/22 07:37:47;;;;;;;3.40;0.82;;;;;;;12.90;48.68;97771.66;5016672;28;20128;-74
2021/01/22 07:40:14;;;;;;;2.80;0.80;;;;;;;12.62;49.00;97765.97;5012815;28;20590;-75
2021/01/22 07:42:41;;;;;;;2.05;0.70;;;;;;;11.41;52.98;97770.47;5012679;28;20434;-75
2021/01/22 07:45:15;;;;;;;1.50;0.80;;;;;;;11.05;53.95;97780.75;5033013;28;20048;-75
2021/01/22 07:47:48;;;;;;;4.28;1.00;;;;;;;11.01;54.27;97766.03;5033648;28;20084;-74
2021/01/22 07:50:16;;;;;;;4.68;0.93;;;;;;;10.57;55.90;97764.00;5051013;28;20049;-75
2021/01/22 07:52:46;;;;;;;4.00;1.13;;;;;;;10.28;56.87;97758.34;5032981;28;20120;-74
2021/01/22 07:55:17;;;;;;;3.67;0.80;;;;;;;10.31;56.64;97770.59;5032994;28;20048;-74
2021/01/22 07:57:44;;;;;;;3.53;1.00;;;;;;;10.43;56.49;97762.13;5013036;28;20041;-75
2021/01/22 08:00:15;;;;;;;4.43;1.20;;;;;;;10.53;55.89;97762.91;5011739;28;20120;-75
2021/01/22 08:02:57;;;;;;;4.85;1.20;;;;;;;10.70;55.39;97757.97;5032585;28;20069;-75
2021/01/22 08:05:32;;;;;;;1.70;0.70;;;;;;;10.59;55.65;97759.09;5018159;28;20041;-73
2021/01/22 08:08:00;;;;;;;3.60;1.40;;;;;;;10.63;55.88;97762.91;5017480;28;20135;-74
2021/01/22 08:10:28;;;;;;;5.45;1.50;;;;;;;10.69;55.75;97767.25;5016310;28;20053;-74
2021/01/22 08:13:01;;;;;;;4.68;0.82;;;;;;;10.80;55.18;97767.19;5020525;28;20135;-74
2021/01/22 08:15:28;;;;;;;3.85;1.13;;;;;;;10.97;54.73;97762.25;5054097;28;20040;-74
2021/01/22 08:17:54;;;;;;;3.50;1.30;;;;;;;11.09;54.36;97763.53;5020210;28;20071;-74
2021/01/22 08:20:22;;;;;;;3.95;1.23;;;;;;;11.33;53.69;97769.16;5036636;28;20049;-74
2021/01/22 08:22:55;;;;;;;5.53;1.02;;;;;;;11.74;52.84;97766.19;5019971;28;20410;-74
2021/01/22 08:25:28;;;;;;;3.08;0.98;;;;;;;11.80;52.15;97764.22;5016521;28;20042;-73
2021/01/22 08:28:03;;;;;;;6.07;1.10;;;;;;;11.94;52.03;97754.31;5040560;28;20080;-75
2021/01/22 08:30:30;;;;;;;2.17;0.93;;;;;;;12.15;51.13;97757.66;5016504;28;20111;-75
2021/01/22 08:32:57;;;;;;;4.25;0.80;;;;;;;12.33;50.63;97759.69;5052396;28;20124;-74
2021/01/22 08:35:25;;;;;;;3.60;1.25;;;;;;;13.40;48.03;97773.00;5019939;28;20057;-75
2021/01/22 08:37:52;;;;;;;3.63;1.20;;;;;;;13.90;46.44;97765.13;5036690;28;20132;-74
2021/01/22 08:40:19;;;;;;;5.30;1.10;;;;;;;12.85;48.93;97775.25;5053607;28;20132;-75
2021/01/22 08:43:01;;;;;;;4.18;1.23;;;;;;;11.85;51.99;97784.13;5015819;28;20491;-74
2021/01/22 08:45:28;;;;;;;5.70;1.20;;;;;;;11.63;53.29;97787.25;5053407;28;20075;-74
2021/01/22 08:47:55;;;;;;;7.60;2.58;;;;;;;11.11;54.27;97789.69;5035989;28;20045;-73
2021/01/22 08:50:21;;;;;;;7.15;2.05;;;;;;;10.89;55.66;97792.78;5036570;28;20098;-74
2021/01/22 08:53:09;;;;;;;10.60;5.30;;;;;;;10.67;56.43;97796.66;5029480;28;20049;-74
2021/01/22 08:55:36;;;;;;;6.68;2.25;;;;;;;10.54;56.82;97813.56;5025804;28;20091;-75
2021/01/22 08:58:04;;;;;;;4.90;1.40;;;;;;;10.51;57.01;97816.03;5036449;28;20419;-75
2021/01/22 09:00:31;;;;;;;6.45;1.20;;;;;;;10.45;57.39;97809.75;5019920;28;20092;-74
2021/01/22 09:02:57;;;;;;;6.32;1.13;;;;;;;10.45;57.73;97814.38;5035829;28;20045;-75
2021/01/22 09:05:25;;;;;;;10.20;1.10;;;;;;;10.38;58.00;97833.75;5035816;28;20041;-75
2021/01/22 09:08:08;;;;;;;4.10;1.35;;;;;;;10.25;58.71;97847.91;5002091;28;20501;-75
2021/01/22 09:10:40;;;;;;;6.47;1.88;;;;;;;10.53;58.41;97854.69;5035364;28;20057;-74
2021/01/22 09:13:09;;;;;;;6.88;1.10;;;;;;;10.48;59.44;97862.84;5015933;28;20049;-74
2021/01/22 09:15:36;;;;;;;;;;;;;;;10.52;62.49;97902.88;5047043;28;20076;-74
2021/01/22 09:18:15;;;;;;;3.40;0.77;;;;;;;10.05;65.81;97905.78;5035428;28;19920;-74
2021/01/22 09:20:44;;;;;;;0.82;0.35;;;;;;;9.43;67.52;97922.19;5052959;28;20045;-74
2021/01/22 09:23:11;;;;;;;1.23;0.50;;;;;;;9.13;69.61;97926.41;5014900;28;20049;-74
2021/01/22 09:25:38;;;;;;;0.98;0.40;;;;;;;9.03;69.48;97945.34;5011138;28;20312;-74
2021/01/22 09:28:04;;;;;;;3.25;0.43;;;;;;;8.93;68.13;97937.97;5035139;28;20063;-74
2021/01/22 09:30:30;;;;;;;1.38;0.30;;;;;;;8.54;68.67;97937.41;5044541;28;20067;-73
2021/01/22 09:32:58;;;;;;;2.33;0.40;;;;;;;8.82;66.95;97951.72;5004218;28;20495;-74
2021/01/22 09:35:29;;;;;;;1.88;0.50;;;;;;;8.76;65.30;97955.47;5034752;28;20041;-74
2021/01/22 09:37:57;;;;;;;0.68;0.30;;;;;;;8.83;65.41;97958.78;5035210;28;20055;-74
2021/01/22 09:40:23;;;;;;;2.15;0.25;;;;;;;8.88;64.68;97969.69;5035312;28;20071;-74
2021/01/22 09:42:50;;;;;;;1.20;0.68;;;;;;;8.90;64.07;97968.38;5034931;28;20325;-74
2021/01/22 09:45:17;;;;;;;0.45;0.30;;;;;;;9.05;63.16;97982.03;5052466;28;20076;-74
2021/01/22 09:47:43;;;;;;;0.88;0.45;;;;;;;9.14;62.28;97993.25;5027131;28;20080;-74
2021/01/22 09:50:12;;;;;;;0.98;0.47;;;;;;;8.91;63.58;97990.91;5018520;28;20053;-74
2021/01/22 09:52:38;;;;;;;3.45;0.47;;;;;;;9.21;62.23;97990.31;5034665;28;20527;-74
2021/01/22 09:55:10;;;;;;;1.83;0.43;;;;;;;9.31;61.43;97991.19;5015352;28;20042;-74
2021/01/22 09:57:38;;;;;;;0.60;0.30;;;;;;;9.28;61.01;97994.44;5015323;28;20049;-74
2021/01/22 10:00:07;;;;;;;1.70;0.40;;;;;;;9.32;61.28;97998.28;5046169;28;20786;-74
2021/01/22 10:02:35;;;;;;;7.30;1.55;;;;;;;9.17;61.99;98002.78;5002520;28;20048;-74
2021/01/22 10:05:03;;;;;;;10.45;1.45;;;;;;;9.28;62.16;97999.88;5052621;28;20044;-74
2021/01/22 10:07:30;;;;;;;3.30;0.75;;;;;;;9.27;62.18;97992.78;5018189;28;20049;-74
2021/01/22 10:09:57;;;;;;;5.05;0.70;;;;;;;9.34;62.19;98001.53;5035177;28;20060;-74
2021/01/22 10:12:24;;;;;;;3.70;0.80;;;;;;;9.31;62.08;97996.63;5034556;28;20049;-74
2021/01/22 10:14:50;;;;;;;1.80;0.45;;;;;;;9.37;61.00;97995.56;5018188;28;20037;-74
2021/01/22 10:17:16;;;;;;;2.00;0.63;;;;;;;9.35;60.90;97992.31;5033957;28;20076;-74
2021/01/22 10:19:43;;;;;;;6.20;1.20;;;;;;;9.23;61.16;97999.84;5017978;28;20041;-74
2021/01/22 10:22:09;;;;;;;4.25;0.55;;;;;;;9.31;60.97;98006.69;5034430;28;20076;-74
2021/01/22 10:24:36;;;;;;;8.95;1.30;;;;;;;9.25;60.67;97997.69;5051697;28;20041;-75
2021/01/22 10:27:02;;;;;;;2.85;0.65;;;;;;;9.28;60.94;97997.16;5051712;28;20151;-75
2021/01/22 10:29:28;;;;;;;3.60;0.90;;;;;;;9.30;60.76;97997.72;5017144;28;20052;-75
2021/01/22 10:31:55;;;;;;;8.25;0.90;;;;;;;9.25;60.71;97997.69;5033911;28;20128;-74
2021/01/22 10:34:21;;;;;;;1.30;0.38;;;;;;;9.04;60.84;97996.69;5016922;28;20457;-75
2021/01/22 10:36:47;;;;;;;7.00;0.60;;;;;;;9.01;61.21;97988.25;5051361;28;20106;-75
2021/01/22 10:39:14;;;;;;;6.70;0.90;;;;;;;9.00;61.22;98002.94;5017689;28;20041;-75
2021/01/22 10:41:40;;;;;;;19.63;1.88;;;;;;;9.03;61.01;98011.34;5017195;28;20182;-74
2021/01/22 10:44:07;;;;;;;30.70;2.80;;;;;;;9.13;60.12;98009.81;5033461;28;20084;-74
2021/01/22 10:46:33;;;;;;;15.07;1.40;;;;;;;9.15;59.35;98015.81;5033518;28;20466;-75
2021/01/22 10:49:00;;;;;;;3.10;0.55;;;;;;;9.23;58.84;98023.47;5033322;28;20481;-75
2021/01/22 10:51:27;;;;;;;5.07;0.73;;;;;;;9.04;59.20;98018.44;5017470;28;20495;-74
2021/01/22 10:53:54;;;;;;;6.50;1.08;;;;;;;9.16;58.62;98007.38;5033199;28;20049;-75
2021/01/22 10:56:21;;;;;;;4.82;0.60;;;;;;;9.08;57.54;98010.59;5033405;28;20060;-75
2021/01/22 10:58:47;;;;;;;5.00;0.68;;;;;;;8.92;58.02;97997.97;5033548;28;20102;-74
2021/01/22 11:01:13;;;;;;;3.55;0.40;;;;;;;9.08;57.48;97999.72;5050919;28;20051;-74
2021/01/22 11:03:40;;;;;;;6.47;0.77;;;;;;;9.30;56.39;97995.00;5033342;28;20139;-74
2021/01/22 11:06:06;;;;;;;3.33;0.50;;;;;;;9.39;55.57;98009.72;5032908;28;20052;-74
2021/01/22 11:08:33;;;;;;;11.68;1.30;;;;;;;9.41;55.62;98004.81;5033046;28;20053;-74
2021/01/22 11:10:59;;;;;;;10.02;0.95;;;;;;;9.35;55.66;98003.19;5051649;28;20132;-74
2021/01/22 11:13:26;;;;;;;4.30;0.50;;;;;;;9.55;55.03;98007.09;5033348;28;20072;-75
2021/01/22 11:15:52;;;;;;;2.83;0.70;;;;;;;9.52;55.01;97996.75;5051586;28;20048;-75
2021/01/22 11:18:18;;;;;;;4.80;0.55;;;;;;;9.66;54.64;98003.34;5033243;28;20449;-75
2021/01/22 11:20:45;;;;;;;2.72;0.50;;;;;;;9.55;54.24;98001.66;5050887;28;20608;-75
2021/01/22 11:23:11;;;;;;;1.85;0.60;;;;;;;9.04;56.48;98014.91;5033114;28;20571;-74
2021/01/22 11:25:38;;;;;;;5.18;0.90;;;;;;;9.27;55.69;98014.53;5051327;28;20069;-75
2021/01/22 11:28:04;;;;;;;8.07;1.00;;;;;;;9.17;56.35;98025.34;5050655;28;20056;-74
2021/01/22 11:30:31;;;;;;;4.32;0.93;;;;;;;9.22;56.44;98025.38;5051437;28;20049;-75
2021/01/22 11:32:58;;;;;;;3.08;0.80;;;;;;;9.10;56.62;98029.34;5037041;28;20057;-75
2021/01/22 11:35:25;;;;;;;1.85;0.70;;;;;;;9.20;56.19;98030.25;5033351;28;20048;-74
2021/01/22 11:37:52;;;;;;;4.88;0.95;;;;;;;9.03;56.66;98021.41;5032708;28;20072;-75
2021/01/22 11:40:19;;;;;;;5.50;1.23;;;;;;;8.92;56.80;98020.53;5013437;28;20526;-74
2021/01/22 11:42:47;;;;;;;3.08;0.80;;;;;;;8.98;56.85;98015.97;5024485;28;20104;-75
2021/01/22 11:45:14;;;;;;;2.90;0.60;;;;;;;9.11;56.29;98007.34;5032607;28;20535;-74